createdAt,value
2023-07-27T00:03:30.589Z,21.87
2023-07-27T00:05:59.767Z,21.84
2023-07-27T00:08:27.714Z,21.84
2023-07-27T00:10:55.817Z,21.85
2023-07-27T00:13:22.638Z,21.86
2023-07-27T00:15:50.355Z,21.78
2023-07-27T00:18:18.227Z,21.78
2023-07-27T00:20:45.950Z,21.78
2023-07-27T00:23:15.178Z,21.72
2023-07-27T00:25:43.008Z,21.75
2023-07-27T00:28:10.777Z,21.80
2023-07-27T00:30:38.723Z,21.82
2023-07-27T00:33:06.797Z,21.80
2023-07-27T00:35:34.628Z,21.81
2023-07-27T00:38:02.629Z,21.74
2023-07-27T00:40:31.881Z,21.76
2023-07-27T00:42:59.845Z,21.75
2023-07-27T00:45:28.303Z,21.73
2023-07-27T00:47:56.266Z,21.69
2023-07-27T00:50:24.193Z,21.70
2023-07-27T00:52:51.892Z,21.65
2023-07-27T00:55:20.087Z,21.61
2023-07-27T00:57:49.305Z,21.58
2023-07-27T01:00:17.243Z,21.62
2023-07-27T01:02:45.173Z,21.63
2023-07-27T01:05:12.918Z,21.60
2023-07-27T01:07:42.649Z,21.64
2023-07-27T01:10:10.982Z,21.66
2023-07-27T01:12:41.010Z,21.47
2023-07-27T01:15:11.765Z,21.39
2023-07-27T01:17:42.152Z,21.64
2023-07-27T01:20:18.040Z,21.37
2023-07-27T01:22:58.770Z,21.61
2023-07-27T01:25:39.499Z,21.61
2023-07-27T01:28:12.985Z,21.57
2023-07-27T01:30:53.014Z,21.63
2023-07-27T01:33:24.924Z,21.57
2023-07-27T01:35:57.477Z,21.50
2023-07-27T01:38:25.186Z,21.15
2023-07-27T01:40:53.345Z,21.59
2023-07-27T01:43:21.089Z,21.49
2023-07-27T01:45:50.310Z,21.43
2023-07-27T01:48:18.020Z,21.54
2023-07-27T01:50:45.909Z,21.62
2023-07-27T01:53:13.644Z,21.63
2023-07-27T01:55:41.636Z,21.42
2023-07-27T01:58:09.360Z,21.61
2023-07-27T02:00:37.278Z,21.63
2023-07-27T02:03:06.778Z,21.64
2023-07-27T02:05:34.592Z,21.68
2023-07-27T02:08:02.548Z,21.72
2023-07-27T02:10:30.363Z,21.77
2023-07-27T02:13:00.011Z,21.77
2023-07-27T02:15:29.504Z,21.78
2023-07-27T02:18:01.162Z,21.80
2023-07-27T02:20:32.153Z,21.78
2023-07-27T02:23:00.153Z,21.81
2023-07-27T02:25:27.883Z,21.84
2023-07-27T02:27:55.786Z,21.83
2023-07-27T02:30:23.671Z,21.85
2023-07-27T02:32:51.512Z,21.85
2023-07-27T02:35:19.371Z,21.82
2023-07-27T02:37:48.852Z,21.85
2023-07-27T02:40:16.780Z,21.88
2023-07-27T02:42:44.608Z,21.91
2023-07-27T02:45:13.119Z,21.89
2023-07-27T02:47:40.998Z,21.90
2023-07-27T02:50:10.186Z,21.89
2023-07-27T02:52:38.058Z,21.87
2023-07-27T02:55:07.733Z,21.85
2023-07-27T02:57:35.592Z,21.81
2023-07-27T03:00:03.587Z,21.84
2023-07-27T03:02:31.547Z,21.81
2023-07-27T03:05:00.016Z,21.76
2023-07-27T03:07:27.763Z,21.74
2023-07-27T03:09:55.693Z,21.72
2023-07-27T03:12:24.878Z,21.69
2023-07-27T03:14:52.720Z,21.53
2023-07-27T03:17:20.744Z,21.61
2023-07-27T03:19:48.655Z,21.56
2023-07-27T03:22:16.439Z,21.52
2023-07-27T03:24:44.461Z,21.48
2023-07-27T03:27:12.227Z,21.46
2023-07-27T03:29:41.351Z,21.38
2023-07-27T03:32:09.732Z,21.36
2023-07-27T03:34:37.470Z,21.29
2023-07-27T03:37:05.974Z,21.28
2023-07-27T03:39:34.118Z,21.20
2023-07-27T03:42:02.170Z,21.14
2023-07-27T03:44:30.019Z,21.10
2023-07-27T03:46:59.406Z,21.06
2023-07-27T03:49:27.164Z,21.02
2023-07-27T03:51:55.005Z,20.89
2023-07-27T03:54:22.783Z,20.85
2023-07-27T03:56:50.644Z,20.85
2023-07-27T03:59:18.377Z,20.81
2023-07-27T04:01:46.119Z,20.82
2023-07-27T04:04:15.438Z,20.81
2023-07-27T04:06:43.423Z,20.81
2023-07-27T04:09:11.454Z,20.75
2023-07-27T04:11:39.268Z,20.73
2023-07-27T04:14:07.149Z,20.63
2023-07-27T04:16:35.120Z,20.53
2023-07-27T04:19:03.192Z,20.51
2023-07-27T04:21:32.249Z,20.47
2023-07-27T04:24:00.205Z,20.43
2023-07-27T04:26:27.996Z,20.36
2023-07-27T04:28:55.953Z,20.34
2023-07-27T04:31:23.684Z,20.30
2023-07-27T04:33:51.494Z,20.25
2023-07-27T04:36:19.243Z,20.23
2023-07-27T04:38:48.887Z,20.21
2023-07-27T04:41:16.636Z,20.23
2023-07-27T04:43:44.484Z,20.22
2023-07-27T04:46:12.247Z,20.16
2023-07-27T04:48:40.129Z,20.15
2023-07-27T04:51:07.872Z,20.00
2023-07-27T04:53:35.903Z,19.83
2023-07-27T04:56:05.250Z,19.67
2023-07-27T04:58:33.136Z,19.60
2023-07-27T05:01:01.275Z,19.49
2023-07-27T05:03:29.199Z,19.41
2023-07-27T05:05:57.030Z,19.36
2023-07-27T05:08:24.989Z,19.30
2023-07-27T05:10:52.775Z,19.29
2023-07-27T05:13:22.112Z,19.21
2023-07-27T05:15:50.326Z,19.19
2023-07-27T05:18:18.260Z,19.14
2023-07-27T05:20:45.976Z,19.12
2023-07-27T05:23:14.865Z,19.03
2023-07-27T05:25:42.570Z,18.98
2023-07-27T05:28:10.449Z,18.96
2023-07-27T05:30:39.556Z,18.88
2023-07-27T05:33:08.957Z,18.88
2023-07-27T05:35:36.695Z,18.84
2023-07-27T05:38:04.752Z,18.82
2023-07-27T05:40:32.530Z,18.84
2023-07-27T05:43:00.368Z,18.65
2023-07-27T05:45:28.104Z,18.37
2023-07-27T05:47:57.386Z,18.66
2023-07-27T05:50:25.644Z,18.71
2023-07-27T05:52:53.465Z,18.67
2023-07-27T05:55:21.306Z,18.64
2023-07-27T05:57:58.133Z,18.57
2023-07-27T06:00:29.662Z,18.54
2023-07-27T06:05:26.606Z,18.57
2023-07-27T06:07:54.504Z,18.56
2023-07-27T06:10:22.304Z,18.57
2023-07-27T06:12:50.035Z,18.44
2023-07-27T06:15:17.956Z,18.67
2023-07-27T06:17:46.096Z,18.59
2023-07-27T06:20:14.030Z,18.67
2023-07-27T06:22:43.167Z,18.68
2023-07-27T06:25:11.286Z,18.77
2023-07-27T06:27:39.087Z,18.79
2023-07-27T06:30:09.637Z,18.82
2023-07-27T06:32:37.765Z,18.89
2023-07-27T06:35:06.394Z,18.72
2023-07-27T06:37:34.181Z,18.74
2023-07-27T06:40:43.748Z,18.94
2023-07-27T06:43:11.511Z,18.74
2023-07-27T06:45:39.621Z,18.97
2023-07-27T06:48:08.047Z,18.96
2023-07-27T06:50:35.859Z,18.97
2023-07-27T06:53:04.831Z,18.99
2023-07-27T06:55:34.004Z,18.96
2023-07-27T06:58:02.558Z,18.97
2023-07-27T07:00:30.428Z,18.95
2023-07-27T07:02:58.429Z,19.15
2023-07-27T07:05:26.373Z,19.14
2023-07-27T07:07:54.193Z,19.16
2023-07-27T07:10:22.726Z,19.26
2023-07-27T07:12:52.104Z,19.27
2023-07-27T07:15:20.028Z,19.29
2023-07-27T07:17:48.981Z,19.36
2023-07-27T07:20:17.017Z,19.39
2023-07-27T07:22:44.770Z,19.42
2023-07-27T07:25:12.709Z,19.51
2023-07-27T07:27:40.536Z,19.50
2023-07-27T07:30:10.854Z,19.57
2023-07-27T07:32:38.697Z,19.61
2023-07-27T07:35:07.533Z,19.67
2023-07-27T07:37:36.364Z,19.64
2023-07-27T07:40:04.727Z,19.66
2023-07-27T07:42:33.361Z,19.54
2023-07-27T07:45:01.071Z,19.68
2023-07-27T07:47:30.593Z,19.72
2023-07-27T07:49:59.451Z,19.74
2023-07-27T07:52:27.403Z,19.67
2023-07-27T07:54:55.108Z,19.80
2023-07-27T07:57:22.935Z,19.80
2023-07-27T07:59:50.676Z,19.82
2023-07-27T08:02:18.508Z,19.90
2023-07-27T08:04:47.716Z,19.97
2023-07-27T08:07:15.447Z,20.04
2023-07-27T08:09:43.460Z,20.04
2023-07-27T08:12:11.226Z,20.07
2023-07-27T08:14:39.135Z,20.07
2023-07-27T08:17:08.019Z,20.17
2023-07-27T08:19:37.023Z,20.29
2023-07-27T08:22:07.262Z,20.21
2023-07-27T08:24:35.195Z,20.30
2023-07-27T08:27:05.588Z,20.37
2023-07-27T08:29:35.261Z,20.35
2023-07-27T08:32:03.573Z,20.15
2023-07-27T08:34:31.381Z,20.36
2023-07-27T08:36:59.210Z,20.42
2023-07-27T08:39:28.995Z,20.45
2023-07-27T08:41:56.885Z,20.50
2023-07-27T08:44:24.723Z,20.54
2023-07-27T08:46:52.611Z,20.59
2023-07-27T08:49:20.703Z,20.30
2023-07-27T08:51:48.953Z,20.60
2023-07-27T08:54:16.947Z,20.59
2023-07-27T08:56:46.396Z,20.53
2023-07-27T08:59:14.276Z,20.54
2023-07-27T09:01:42.314Z,20.58
2023-07-27T09:04:10.176Z,20.59
2023-07-27T09:06:47.547Z,20.62
2023-07-27T09:09:16.571Z,20.56
2023-07-27T09:11:47.171Z,20.60
2023-07-27T09:14:15.258Z,20.59
2023-07-27T09:16:59.237Z,20.59
2023-07-27T09:19:28.600Z,20.58
2023-07-27T09:21:58.615Z,20.61
2023-07-27T09:24:26.823Z,20.55
2023-07-27T09:26:56.211Z,20.68
2023-07-27T09:29:24.129Z,20.77
2023-07-27T09:31:53.253Z,20.82
2023-07-27T09:34:21.896Z,20.96
2023-07-27T09:36:49.700Z,21.11
2023-07-27T09:39:17.681Z,21.21
2023-07-27T09:41:46.104Z,21.23
2023-07-27T09:44:16.593Z,21.26
2023-07-27T09:46:46.107Z,21.29
2023-07-27T09:49:14.347Z,21.26
2023-07-27T09:51:42.320Z,21.27
2023-07-27T09:54:10.366Z,21.18
2023-07-27T09:56:39.565Z,21.18
2023-07-27T09:59:08.195Z,21.26
2023-07-27T10:01:37.650Z,21.32
2023-07-27T10:04:05.882Z,21.35
2023-07-27T10:06:34.234Z,21.34
2023-07-27T10:09:02.323Z,21.44
2023-07-27T10:11:31.420Z,21.51
2023-07-27T10:13:59.633Z,21.55
2023-07-27T10:16:29.252Z,21.54
2023-07-27T10:18:58.546Z,21.55
2023-07-27T10:21:28.281Z,20.99
2023-07-27T10:23:57.886Z,21.39
2023-07-27T10:26:53.313Z,21.80
2023-07-27T10:29:21.975Z,21.83
2023-07-27T10:32:02.188Z,21.85
2023-07-27T10:34:36.885Z,21.83
2023-07-27T10:37:09.554Z,21.50
2023-07-27T10:39:43.638Z,21.94
2023-07-27T10:42:13.401Z,22.05
2023-07-27T10:44:42.612Z,21.91
2023-07-27T10:47:10.685Z,22.22
2023-07-27T10:49:43.499Z,22.10
2023-07-27T10:52:12.104Z,22.21
2023-07-27T10:54:40.845Z,22.20
2023-07-27T10:57:09.108Z,22.17
2023-07-27T10:59:38.884Z,21.87
2023-07-27T11:02:08.482Z,22.08
2023-07-27T11:04:36.758Z,22.03
2023-07-27T11:07:06.560Z,21.97
2023-07-27T11:09:34.669Z,22.03
2023-07-27T11:12:03.080Z,21.99
2023-07-27T11:14:31.207Z,21.76
2023-07-27T11:16:59.352Z,22.00
2023-07-27T11:19:47.319Z,22.00
2023-07-27T11:22:17.082Z,22.14
2023-07-27T11:24:45.226Z,22.29
2023-07-27T11:27:13.970Z,22.46
2023-07-27T11:29:44.588Z,22.59
2023-07-27T11:32:12.782Z,22.64
2023-07-27T11:34:41.893Z,22.64
2023-07-27T11:37:09.817Z,22.84
2023-07-27T11:39:39.446Z,22.93
2023-07-27T11:42:12.081Z,22.99
2023-07-27T11:44:40.746Z,23.06
2023-07-27T11:47:09.240Z,22.98
2023-07-27T11:49:37.155Z,23.30
2023-07-27T11:52:08.344Z,23.37
2023-07-27T11:54:42.168Z,23.43
2023-07-27T11:57:10.677Z,23.49
2023-07-27T11:59:39.185Z,23.53
2023-07-27T12:02:07.396Z,22.93
2023-07-27T12:04:35.438Z,22.99
2023-07-27T12:07:03.741Z,21.37
2023-07-27T12:09:32.684Z,22.83
2023-07-27T12:12:03.115Z,23.46
2023-07-27T12:14:34.697Z,21.14
2023-07-27T12:25:38.217Z,22.81
2023-07-27T12:27:48.561Z,23.39
2023-07-27T12:32:47.262Z,23.61
2023-07-27T12:37:48.524Z,23.64
2023-07-27T12:40:16.610Z,23.68
2023-07-27T12:42:44.401Z,23.74
2023-07-27T12:45:14.990Z,23.75
2023-07-27T12:47:45.123Z,23.78
2023-07-27T12:50:14.128Z,23.77
2023-07-27T12:52:42.431Z,23.73
2023-07-27T12:55:10.838Z,23.64
2023-07-27T12:57:38.674Z,23.70
2023-07-27T13:00:09.431Z,23.77
2023-07-27T13:02:38.636Z,23.80
2023-07-27T13:05:13.362Z,23.82
2023-07-27T13:07:44.717Z,23.89
2023-07-27T13:10:12.561Z,23.92
2023-07-27T13:12:40.366Z,24.02
2023-07-27T13:15:08.994Z,24.07
2023-07-27T13:17:40.930Z,24.11
2023-07-27T13:20:10.524Z,24.06
2023-07-27T13:22:38.650Z,24.02
2023-07-27T13:25:07.208Z,23.99
2023-07-27T13:27:35.107Z,23.99
2023-07-27T13:30:05.513Z,24.06
2023-07-27T13:32:33.728Z,24.13
2023-07-27T13:35:03.163Z,24.14
2023-07-27T13:37:33.327Z,24.07
2023-07-27T13:40:01.277Z,24.02
2023-07-27T13:42:29.077Z,23.97
2023-07-27T13:44:56.950Z,23.96
2023-07-27T13:47:24.870Z,23.96
2023-07-27T13:49:52.679Z,24.02
2023-07-27T13:52:21.917Z,24.07
2023-07-27T13:54:49.667Z,24.08
2023-07-27T13:57:17.514Z,24.12
2023-07-27T13:59:45.206Z,24.15
2023-07-27T14:02:13.252Z,24.24
2023-07-27T14:04:41.046Z,24.33
2023-07-27T14:07:08.894Z,24.42
2023-07-27T14:09:38.194Z,24.44
2023-07-27T14:12:06.869Z,24.44
2023-07-27T14:14:34.628Z,24.36
2023-07-27T14:17:02.377Z,24.38
2023-07-27T14:19:30.335Z,24.39
2023-07-27T14:21:58.131Z,24.36
2023-07-27T14:24:25.865Z,24.29
2023-07-27T14:26:55.157Z,24.29
2023-07-27T14:29:25.093Z,24.30
2023-07-27T14:31:54.096Z,24.33
2023-07-27T14:34:21.998Z,24.33
2023-07-27T14:36:49.808Z,24.30
2023-07-27T14:39:17.617Z,24.32
2023-07-27T14:41:45.451Z,24.25
2023-07-27T14:44:15.671Z,24.32
2023-07-27T14:46:43.388Z,24.32
2023-07-27T14:49:11.255Z,24.31
2023-07-27T14:51:39.092Z,24.24
2023-07-27T14:54:09.968Z,24.16
2023-07-27T14:56:37.908Z,24.18
2023-07-27T14:59:09.471Z,24.14
2023-07-27T15:06:43.778Z,24.08
2023-07-27T15:09:11.840Z,24.08
2023-07-27T15:11:39.733Z,24.10
2023-07-27T15:14:07.662Z,24.05
2023-07-27T15:16:35.812Z,24.06
2023-07-27T15:19:05.295Z,24.03
2023-07-27T15:21:33.132Z,24.01
2023-07-27T15:24:00.937Z,23.90
2023-07-27T15:26:30.639Z,23.86
2023-07-27T15:28:58.434Z,23.82
2023-07-27T15:31:27.096Z,23.79
2023-07-27T15:33:54.857Z,23.78
2023-07-27T15:36:24.057Z,23.72
2023-07-27T15:38:51.969Z,23.74
2023-07-27T15:41:19.760Z,23.71
2023-07-27T15:43:47.597Z,23.70
2023-07-27T15:46:16.054Z,23.63
2023-07-27T15:48:44.151Z,23.54
2023-07-27T15:51:11.892Z,23.52
2023-07-27T15:53:42.691Z,23.44
2023-07-27T15:56:10.432Z,23.38
2023-07-27T15:58:38.571Z,23.33
2023-07-27T16:01:06.547Z,23.29
2023-07-27T16:03:34.519Z,23.20
2023-07-27T16:06:05.579Z,23.25
2023-07-27T16:08:33.364Z,23.30
2023-07-27T16:11:02.429Z,23.30
2023-07-27T16:13:30.203Z,23.30
2023-07-27T16:15:58.181Z,23.33
2023-07-27T16:18:26.021Z,23.34
2023-07-27T16:20:53.774Z,23.32
2023-07-27T16:23:21.648Z,23.34
2023-07-27T16:25:49.538Z,23.36
2023-07-27T16:28:18.942Z,22.85
2023-07-27T16:30:46.840Z,23.16
2023-07-27T16:33:14.596Z,23.43
2023-07-27T16:35:44.400Z,23.46
2023-07-27T16:38:12.325Z,23.45
2023-07-27T16:40:40.235Z,23.39
2023-07-27T16:43:08.050Z,23.42
2023-07-27T16:45:40.340Z,23.38
2023-07-27T16:48:08.219Z,23.28
2023-07-27T16:50:36.983Z,23.40
2023-07-27T16:53:04.912Z,23.39
2023-07-27T16:55:34.496Z,23.39
2023-07-27T16:58:02.412Z,23.36
2023-07-27T17:00:30.196Z,23.35
2023-07-27T17:02:59.455Z,23.33
2023-07-27T17:05:27.337Z,23.29
2023-07-27T17:07:55.234Z,23.28
2023-07-27T17:10:23.011Z,22.97
2023-07-27T17:12:50.875Z,23.12
2023-07-27T17:15:18.811Z,23.25
2023-07-27T17:17:46.693Z,23.24
2023-07-27T17:20:18.977Z,23.24
2023-07-27T17:22:46.773Z,23.21
2023-07-27T17:25:14.568Z,23.17
2023-07-27T17:27:43.722Z,23.21
2023-07-27T17:30:12.980Z,23.22
2023-07-27T17:32:42.124Z,23.24
2023-07-27T17:35:11.350Z,23.21
2023-07-27T17:37:40.550Z,23.21
2023-07-27T17:40:09.870Z,23.20
2023-07-27T17:42:37.638Z,23.11
2023-07-27T17:45:06.236Z,23.13
2023-07-27T17:47:34.041Z,23.17
2023-07-27T17:50:02.039Z,22.99
2023-07-27T17:52:29.955Z,23.10
2023-07-27T17:54:59.058Z,23.06
2023-07-27T17:57:27.107Z,23.09
2023-07-27T17:59:55.231Z,22.43
2023-07-27T18:02:23.461Z,23.03
2023-07-27T18:07:28.499Z,23.00
2023-07-27T18:09:56.451Z,22.97
2023-07-27T18:12:25.857Z,22.98
2023-07-27T18:14:53.762Z,22.96
2023-07-27T18:17:24.302Z,22.75
2023-07-27T18:19:52.197Z,22.88
2023-07-27T18:22:20.277Z,22.88
2023-07-27T18:24:48.587Z,22.84
2023-07-27T18:27:16.497Z,22.86
2023-07-27T18:29:46.885Z,22.86
2023-07-27T18:32:14.848Z,22.83
2023-07-27T18:34:42.905Z,22.85
2023-07-27T18:37:13.853Z,22.75
2023-07-27T18:39:41.948Z,22.84
2023-07-27T18:42:09.987Z,22.84
2023-07-27T18:44:37.834Z,22.82
2023-07-27T18:47:07.575Z,22.81
2023-07-27T18:49:35.682Z,22.79
2023-07-27T18:52:03.720Z,22.81
2023-07-27T18:54:31.709Z,22.78
2023-07-27T18:56:59.629Z,22.78
2023-07-27T18:59:27.631Z,22.79
2023-07-27T19:01:55.448Z,22.76
2023-07-27T19:04:24.773Z,22.80
2023-07-27T19:06:53.830Z,22.76
2023-07-27T19:09:21.764Z,22.79
2023-07-27T19:11:49.649Z,22.78
2023-07-27T19:14:19.798Z,22.77
2023-07-27T19:16:47.993Z,22.48
2023-07-27T19:19:15.960Z,22.74
2023-07-27T19:21:45.716Z,22.70
2023-07-27T19:24:15.869Z,22.72
2023-07-27T19:26:44.077Z,22.72
2023-07-27T19:29:13.074Z,22.68
2023-07-27T19:31:40.975Z,22.41
2023-07-27T19:34:09.086Z,22.66
2023-07-27T19:36:37.458Z,22.64
2023-07-27T19:39:06.815Z,22.64
2023-07-27T19:41:34.678Z,22.59
2023-07-27T19:44:03.073Z,22.63
2023-07-27T19:46:30.956Z,22.48
2023-07-27T19:48:58.836Z,22.28
2023-07-27T19:51:26.947Z,22.59
2023-07-27T19:53:54.926Z,22.59
2023-07-27T19:56:24.541Z,22.60
2023-07-27T19:58:52.927Z,22.59
2023-07-27T20:01:21.011Z,22.59
2023-07-27T20:03:49.616Z,22.59
2023-07-27T20:06:17.754Z,22.60
2023-07-27T20:08:48.350Z,22.59
2023-07-27T20:11:17.595Z,22.58
2023-07-27T20:13:47.541Z,22.54
2023-07-27T20:16:16.702Z,22.54
2023-07-27T20:18:46.649Z,22.53
2023-07-27T20:21:15.096Z,22.53
2023-07-27T20:23:42.997Z,22.55
2023-07-27T20:26:11.207Z,22.59
2023-07-27T20:28:39.317Z,22.59
2023-07-27T20:31:09.816Z,22.55
2023-07-27T20:33:37.919Z,22.60
2023-07-27T20:36:06.248Z,22.58
2023-07-27T20:38:34.451Z,22.55
2023-07-27T20:41:05.380Z,22.48
2023-07-27T20:43:33.438Z,22.55
2023-07-27T20:46:05.237Z,22.52
2023-07-27T20:48:37.012Z,22.51
2023-07-27T20:51:06.560Z,22.40
2023-07-27T20:53:35.289Z,22.54
2023-07-27T20:56:03.166Z,22.56
2023-07-27T20:58:30.971Z,22.55
2023-07-27T21:01:01.873Z,22.30
2023-07-27T21:03:31.660Z,22.52
2023-07-27T21:06:02.546Z,22.33
2023-07-27T21:08:30.402Z,22.49
2023-07-27T21:10:58.254Z,22.49
2023-07-27T21:13:26.077Z,22.46
2023-07-27T21:16:00.897Z,22.44
2023-07-27T21:18:28.875Z,22.42
2023-07-27T21:20:56.585Z,22.37
2023-07-27T21:23:25.914Z,22.39
2023-07-27T21:25:58.477Z,22.42
2023-07-27T21:28:26.441Z,22.12
2023-07-27T21:30:57.238Z,22.38
2023-07-27T21:33:28.531Z,22.42
2023-07-27T21:35:57.031Z,22.42
2023-07-27T21:38:26.200Z,22.40
2023-07-27T21:40:54.105Z,22.37
2023-07-27T21:43:21.923Z,22.39
2023-07-27T21:45:49.784Z,22.36
2023-07-27T21:48:17.770Z,22.38
2023-07-27T21:50:45.860Z,21.93
2023-07-27T21:53:13.616Z,22.33
2023-07-27T21:55:42.732Z,22.29
2023-07-27T21:58:10.567Z,22.28
2023-07-27T22:00:38.367Z,22.02
2023-07-27T22:03:06.314Z,22.22
2023-07-27T22:05:35.172Z,22.16
2023-07-27T22:08:03.555Z,22.19
2023-07-27T22:10:31.411Z,22.16
2023-07-27T22:13:03.119Z,22.15
2023-07-27T22:15:31.010Z,22.16
2023-07-27T22:17:58.796Z,22.14
2023-07-27T22:20:27.996Z,22.13
2023-07-27T22:22:55.731Z,22.04
2023-07-27T22:25:23.718Z,22.09
2023-07-27T22:27:51.472Z,22.06
2023-07-27T22:30:21.131Z,21.95
2023-07-27T22:32:48.978Z,21.80
2023-07-27T22:35:16.906Z,21.99
2023-07-27T22:37:44.840Z,21.87
2023-07-27T22:40:13.016Z,22.00
2023-07-27T22:42:40.780Z,21.98
2023-07-27T22:45:09.768Z,21.91
2023-07-27T22:47:39.003Z,21.97
2023-07-27T22:50:07.626Z,21.96
2023-07-27T22:52:36.445Z,21.90
2023-07-27T22:55:04.352Z,21.97
2023-07-27T22:57:32.169Z,21.98
2023-07-27T22:59:59.858Z,21.98
2023-07-27T23:02:27.713Z,21.98
2023-07-27T23:04:56.833Z,21.98
2023-07-27T23:07:24.709Z,22.00
2023-07-27T23:09:52.480Z,22.01
2023-07-27T23:12:20.386Z,22.02
2023-07-27T23:14:48.106Z,22.03
2023-07-27T23:17:16.056Z,22.06
2023-07-27T23:19:44.096Z,22.06
2023-07-27T23:22:13.205Z,22.05
2023-07-27T23:24:43.108Z,22.06
2023-07-27T23:27:10.873Z,21.73
2023-07-27T23:29:38.614Z,22.03
2023-07-27T23:32:07.072Z,21.84
2023-07-27T23:34:34.821Z,22.03
2023-07-27T23:37:05.157Z,21.63
2023-07-27T23:39:34.267Z,22.02
2023-07-27T23:42:02.052Z,21.98
2023-07-27T23:44:29.776Z,22.04
2023-07-27T23:46:57.557Z,22.04
2023-07-27T23:49:25.274Z,22.01
2023-07-27T23:51:53.347Z,21.98
2023-07-27T23:54:21.133Z,21.95
2023-07-27T23:56:50.375Z,21.97
2023-07-27T23:59:18.123Z,21.99
